sensor_id;sensor_type;location;lat;lon;timestamp;P1;durP1;ratioP1;P2;durP2;ratioP2
15925;SDS011;8062;53.882;10.642;2023-06-26T00:00:13;0.40;;;0.40;;
15925;SDS011;8062;53.882;10.642;2023-06-26T00:01:33;0.37;;;0.37;;
15925;SDS011;8062;53.882;10.642;2023-06-26T00:02:52;0.40;;;0.40;;
15925;SDS011;8062;53.882;10.642;2023-06-26T00:04:12;0.30;;;0.30;;
15925;SDS011;8062;53.882;10.642;2023-06-26T00:05:33;0.43;;;0.43;;
15925;SDS011;8062;53.882;10.642;2023-06-26T00:06:53;0.30;;;0.30;;
15925;SDS011;8062;53.882;10.642;2023-06-26T00:08:13;0.43;;;0.43;;
15925;SDS011;8062;53.882;10.642;2023-06-26T00:09:32;0.40;;;0.40;;
15925;SDS011;8062;53.882;10.642;2023-06-26T00:10:52;0.30;;;0.30;;
15925;SDS011;8062;53.882;10.642;2023-06-26T00:12:12;0.50;;;0.50;;
15925;SDS011;8062;53.882;10.642;2023-06-26T00:13:31;0.40;;;0.40;;
15925;SDS011;8062;53.882;10.642;2023-06-26T00:14:53;0.30;;;0.30;;
15925;SDS011;8062;53.882;10.642;2023-06-26T00:16:12;0.40;;;0.40;;
15925;SDS011;8062;53.882;10.642;2023-06-26T00:17:32;0.30;;;0.30;;
15925;SDS011;8062;53.882;10.642;2023-06-26T00:18:56;0.30;;;0.30;;
15925;SDS011;8062;53.882;10.642;2023-06-26T00:20:15;0.33;;;0.33;;
15925;SDS011;8062;53.882;10.642;2023-06-26T00:21:35;0.40;;;0.40;;
15925;SDS011;8062;53.882;10.642;2023-06-26T00:22:54;0.30;;;0.30;;
15925;SDS011;8062;53.882;10.642;2023-06-26T00:24:14;0.40;;;0.40;;
15925;SDS011;8062;53.882;10.642;2023-06-26T00:25:33;0.43;;;0.43;;
15925;SDS011;8062;53.882;10.642;2023-06-26T00:26:53;0.57;;;0.57;;
15925;SDS011;8062;53.882;10.642;2023-06-26T00:28:13;0.47;;;0.47;;
15925;SDS011;8062;53.882;10.642;2023-06-26T00:29:32;0.47;;;0.47;;
15925;SDS011;8062;53.882;10.642;2023-06-26T00:30:51;0.30;;;0.30;;
15925;SDS011;8062;53.882;10.642;2023-06-26T00:32:11;0.50;;;0.50;;
15925;SDS011;8062;53.882;10.642;2023-06-26T00:33:30;0.43;;;0.43;;
15925;SDS011;8062;53.882;10.642;2023-06-26T00:34:50;0.47;;;0.47;;
15925;SDS011;8062;53.882;10.642;2023-06-26T00:36:10;0.50;;;0.50;;
15925;SDS011;8062;53.882;10.642;2023-06-26T00:37:29;0.50;;;0.50;;
15925;SDS011;8062;53.882;10.642;2023-06-26T00:38:50;0.40;;;0.40;;
15925;SDS011;8062;53.882;10.642;2023-06-26T00:40:09;0.40;;;0.40;;
15925;SDS011;8062;53.882;10.642;2023-06-26T00:41:29;0.60;;;0.60;;
15925;SDS011;8062;53.882;10.642;2023-06-26T00:42:49;0.50;;;0.50;;
15925;SDS011;8062;53.882;10.642;2023-06-26T00:44:09;0.60;;;0.60;;
15925;SDS011;8062;53.882;10.642;2023-06-26T00:45:28;0.63;;;0.63;;
15925;SDS011;8062;53.882;10.642;2023-06-26T00:46:48;0.67;;;0.67;;
15925;SDS011;8062;53.882;10.642;2023-06-26T00:48:07;0.73;;;0.73;;
15925;SDS011;8062;53.882;10.642;2023-06-26T00:49:31;0.77;;;0.77;;
15925;SDS011;8062;53.882;10.642;2023-06-26T00:50:50;0.53;;;0.53;;
15925;SDS011;8062;53.882;10.642;2023-06-26T00:52:10;0.73;;;0.73;;
15925;SDS011;8062;53.882;10.642;2023-06-26T00:53:30;0.73;;;0.73;;
15925;SDS011;8062;53.882;10.642;2023-06-26T00:54:50;0.47;;;0.47;;
15925;SDS011;8062;53.882;10.642;2023-06-26T00:56:10;0.43;;;0.43;;
15925;SDS011;8062;53.882;10.642;2023-06-26T00:57:30;0.50;;;0.50;;
15925;SDS011;8062;53.882;10.642;2023-06-26T00:58:50;0.43;;;0.43;;
15925;SDS011;8062;53.882;10.642;2023-06-26T01:00:09;0.73;;;0.73;;
15925;SDS011;8062;53.882;10.642;2023-06-26T01:01:29;0.67;;;0.67;;
15925;SDS011;8062;53.882;10.642;2023-06-26T01:02:49;0.70;;;0.70;;
15925;SDS011;8062;53.882;10.642;2023-06-26T01:04:08;0.67;;;0.67;;
15925;SDS011;8062;53.882;10.642;2023-06-26T01:05:36;0.47;;;0.47;;
15925;SDS011;8062;53.882;10.642;2023-06-26T01:06:57;0.43;;;0.43;;
15925;SDS011;8062;53.882;10.642;2023-06-26T01:08:18;0.77;;;0.77;;
15925;SDS011;8062;53.882;10.642;2023-06-26T01:09:38;0.47;;;0.47;;
15925;SDS011;8062;53.882;10.642;2023-06-26T01:10:58;0.67;;;0.67;;
15925;SDS011;8062;53.882;10.642;2023-06-26T01:12:18;0.57;;;0.57;;
15925;SDS011;8062;53.882;10.642;2023-06-26T01:13:38;0.87;;;0.87;;
15925;SDS011;8062;53.882;10.642;2023-06-26T01:15:01;0.70;;;0.70;;
15925;SDS011;8062;53.882;10.642;2023-06-26T01:16:21;0.70;;;0.70;;
15925;SDS011;8062;53.882;10.642;2023-06-26T01:17:43;0.63;;;0.63;;
15925;SDS011;8062;53.882;10.642;2023-06-26T01:19:06;0.60;;;0.60;;
15925;SDS011;8062;53.882;10.642;2023-06-26T01:20:31;0.57;;;0.57;;
15925;SDS011;8062;53.882;10.642;2023-06-26T01:21:56;0.70;;;0.70;;
15925;SDS011;8062;53.882;10.642;2023-06-26T01:25:08;0.60;;;0.60;;
15925;SDS011;8062;53.882;10.642;2023-06-26T01:26:40;0.67;;;0.67;;
15925;SDS011;8062;53.882;10.642;2023-06-26T01:28:01;0.93;;;0.93;;
15925;SDS011;8062;53.882;10.642;2023-06-26T01:29:23;1.00;;;1.00;;
15925;SDS011;8062;53.882;10.642;2023-06-26T01:30:44;1.27;;;1.27;;
15925;SDS011;8062;53.882;10.642;2023-06-26T01:32:05;1.23;;;1.23;;
15925;SDS011;8062;53.882;10.642;2023-06-26T01:33:25;1.10;;;1.10;;
15925;SDS011;8062;53.882;10.642;2023-06-26T01:34:45;1.07;;;1.07;;
15925;SDS011;8062;53.882;10.642;2023-06-26T01:36:05;1.07;;;1.07;;
15925;SDS011;8062;53.882;10.642;2023-06-26T01:37:28;1.27;;;1.27;;
15925;SDS011;8062;53.882;10.642;2023-06-26T01:38:48;1.13;;;1.13;;
15925;SDS011;8062;53.882;10.642;2023-06-26T01:40:08;1.03;;;1.03;;
15925;SDS011;8062;53.882;10.642;2023-06-26T01:41:28;1.27;;;1.27;;
15925;SDS011;8062;53.882;10.642;2023-06-26T01:42:47;1.30;;;1.30;;
15925;SDS011;8062;53.882;10.642;2023-06-26T01:44:25;1.00;;;1.00;;
15925;SDS011;8062;53.882;10.642;2023-06-26T01:45:48;0.77;;;0.77;;
15925;SDS011;8062;53.882;10.642;2023-06-26T01:47:10;1.00;;;1.00;;
15925;SDS011;8062;53.882;10.642;2023-06-26T01:50:26;0.83;;;0.83;;
15925;SDS011;8062;53.882;10.642;2023-06-26T01:52:12;1.23;;;1.23;;
15925;SDS011;8062;53.882;10.642;2023-06-26T01:53:45;0.67;;;0.67;;
15925;SDS011;8062;53.882;10.642;2023-06-26T01:56:32;1.17;;;1.17;;
15925;SDS011;8062;53.882;10.642;2023-06-26T01:57:52;1.00;;;1.00;;
15925;SDS011;8062;53.882;10.642;2023-06-26T01:59:15;1.17;;;1.17;;
15925;SDS011;8062;53.882;10.642;2023-06-26T02:00:37;1.20;;;1.20;;
15925;SDS011;8062;53.882;10.642;2023-06-26T02:01:57;1.20;;;1.20;;
15925;SDS011;8062;53.882;10.642;2023-06-26T02:03:20;1.30;;;1.30;;
15925;SDS011;8062;53.882;10.642;2023-06-26T02:04:40;1.60;;;1.60;;
15925;SDS011;8062;53.882;10.642;2023-06-26T02:06:00;1.33;;;1.33;;
15925;SDS011;8062;53.882;10.642;2023-06-26T02:07:20;1.47;;;1.47;;
15925;SDS011;8062;53.882;10.642;2023-06-26T02:08:40;1.70;;;1.70;;
15925;SDS011;8062;53.882;10.642;2023-06-26T02:10:00;1.90;;;1.80;;
15925;SDS011;8062;53.882;10.642;2023-06-26T02:11:19;1.40;;;1.40;;
15925;SDS011;8062;53.882;10.642;2023-06-26T02:12:39;1.63;;;1.63;;
15925;SDS011;8062;53.882;10.642;2023-06-26T02:13:58;1.50;;;1.50;;
15925;SDS011;8062;53.882;10.642;2023-06-26T02:15:18;2.10;;;2.00;;
15925;SDS011;8062;53.882;10.642;2023-06-26T02:16:38;1.67;;;1.67;;
15925;SDS011;8062;53.882;10.642;2023-06-26T02:17:59;1.60;;;1.60;;
15925;SDS011;8062;53.882;10.642;2023-06-26T02:19:19;1.97;;;1.87;;
15925;SDS011;8062;53.882;10.642;2023-06-26T02:20:40;2.00;;;1.90;;
15925;SDS011;8062;53.882;10.642;2023-06-26T02:22:00;1.70;;;1.70;;
15925;SDS011;8062;53.882;10.642;2023-06-26T02:23:19;1.97;;;1.87;;
15925;SDS011;8062;53.882;10.642;2023-06-26T02:24:39;2.00;;;1.90;;
15925;SDS011;8062;53.882;10.642;2023-06-26T02:25:59;2.10;;;2.00;;
15925;SDS011;8062;53.882;10.642;2023-06-26T02:27:18;1.93;;;1.83;;
15925;SDS011;8062;53.882;10.642;2023-06-26T02:28:38;1.60;;;1.60;;
15925;SDS011;8062;53.882;10.642;2023-06-26T02:29:57;1.60;;;1.60;;
15925;SDS011;8062;53.882;10.642;2023-06-26T02:31:17;1.27;;;1.27;;
15925;SDS011;8062;53.882;10.642;2023-06-26T02:32:37;1.37;;;1.37;;
15925;SDS011;8062;53.882;10.642;2023-06-26T02:33:56;1.30;;;1.30;;
15925;SDS011;8062;53.882;10.642;2023-06-26T02:35:16;1.40;;;1.40;;
15925;SDS011;8062;53.882;10.642;2023-06-26T02:36:35;1.53;;;1.53;;
15925;SDS011;8062;53.882;10.642;2023-06-26T02:37:57;1.57;;;1.57;;
15925;SDS011;8062;53.882;10.642;2023-06-26T02:39:17;1.77;;;1.73;;
15925;SDS011;8062;53.882;10.642;2023-06-26T02:40:37;2.07;;;1.97;;
15925;SDS011;8062;53.882;10.642;2023-06-26T02:41:57;2.40;;;2.30;;
15925;SDS011;8062;53.882;10.642;2023-06-26T02:43:17;2.40;;;2.30;;
15925;SDS011;8062;53.882;10.642;2023-06-26T02:44:37;2.10;;;2.00;;
15925;SDS011;8062;53.882;10.642;2023-06-26T02:45:57;2.67;;;2.57;;
15925;SDS011;8062;53.882;10.642;2023-06-26T02:47:17;2.50;;;2.40;;
15925;SDS011;8062;53.882;10.642;2023-06-26T02:48:37;2.60;;;2.50;;
15925;SDS011;8062;53.882;10.642;2023-06-26T02:49:57;3.07;;;2.93;;
15925;SDS011;8062;53.882;10.642;2023-06-26T02:51:16;3.43;;;3.23;;
15925;SDS011;8062;53.882;10.642;2023-06-26T02:52:36;3.20;;;3.03;;
15925;SDS011;8062;53.882;10.642;2023-06-26T02:53:55;3.37;;;3.17;;
15925;SDS011;8062;53.882;10.642;2023-06-26T02:55:15;3.40;;;3.20;;
15925;SDS011;8062;53.882;10.642;2023-06-26T02:56:35;3.17;;;3.00;;
15925;SDS011;8062;53.882;10.642;2023-06-26T02:57:55;3.10;;;2.97;;
15925;SDS011;8062;53.882;10.642;2023-06-26T02:59:15;3.17;;;3.00;;
15925;SDS011;8062;53.882;10.642;2023-06-26T03:00:35;2.93;;;2.80;;
15925;SDS011;8062;53.882;10.642;2023-06-26T03:02:00;2.47;;;2.37;;
15925;SDS011;8062;53.882;10.642;2023-06-26T03:03:28;1.50;;;1.47;;
15925;SDS011;8062;53.882;10.642;2023-06-26T03:04:49;1.53;;;1.53;;
15925;SDS011;8062;53.882;10.642;2023-06-26T03:06:09;1.80;;;1.73;;
15925;SDS011;8062;53.882;10.642;2023-06-26T03:07:29;1.63;;;1.60;;
15925;SDS011;8062;53.882;10.642;2023-06-26T03:08:49;1.27;;;1.27;;
15925;SDS011;8062;53.882;10.642;2023-06-26T03:10:08;1.40;;;1.40;;
15925;SDS011;8062;53.882;10.642;2023-06-26T03:11:28;1.33;;;1.33;;
15925;SDS011;8062;53.882;10.642;2023-06-26T03:12:48;1.07;;;1.07;;
15925;SDS011;8062;53.882;10.642;2023-06-26T03:14:10;0.87;;;0.87;;
15925;SDS011;8062;53.882;10.642;2023-06-26T03:15:30;0.90;;;0.90;;
15925;SDS011;8062;53.882;10.642;2023-06-26T03:16:50;1.10;;;1.10;;
15925;SDS011;8062;53.882;10.642;2023-06-26T03:18:12;0.90;;;0.90;;
15925;SDS011;8062;53.882;10.642;2023-06-26T03:19:31;0.70;;;0.70;;
15925;SDS011;8062;53.882;10.642;2023-06-26T03:21:14;0.40;;;0.40;;
15925;SDS011;8062;53.882;10.642;2023-06-26T03:22:34;0.53;;;0.53;;
15925;SDS011;8062;53.882;10.642;2023-06-26T03:23:54;0.53;;;0.53;;
15925;SDS011;8062;53.882;10.642;2023-06-26T03:25:13;0.50;;;0.50;;
15925;SDS011;8062;53.882;10.642;2023-06-26T03:26:33;0.50;;;0.50;;
15925;SDS011;8062;53.882;10.642;2023-06-26T03:27:53;0.50;;;0.50;;
15925;SDS011;8062;53.882;10.642;2023-06-26T03:29:13;0.50;;;0.50;;
15925;SDS011;8062;53.882;10.642;2023-06-26T03:30:33;0.40;;;0.40;;
15925;SDS011;8062;53.882;10.642;2023-06-26T03:31:53;0.40;;;0.40;;
15925;SDS011;8062;53.882;10.642;2023-06-26T03:33:13;0.43;;;0.43;;
15925;SDS011;8062;53.882;10.642;2023-06-26T03:34:34;0.43;;;0.43;;
15925;SDS011;8062;53.882;10.642;2023-06-26T03:35:53;0.30;;;0.30;;
15925;SDS011;8062;53.882;10.642;2023-06-26T03:37:13;0.40;;;0.40;;
15925;SDS011;8062;53.882;10.642;2023-06-26T03:38:32;0.43;;;0.43;;
15925;SDS011;8062;53.882;10.642;2023-06-26T03:39:53;0.40;;;0.40;;
15925;SDS011;8062;53.882;10.642;2023-06-26T03:41:14;0.37;;;0.37;;
15925;SDS011;8062;53.882;10.642;2023-06-26T03:42:34;0.40;;;0.40;;
15925;SDS011;8062;53.882;10.642;2023-06-26T03:43:54;0.30;;;0.30;;
15925;SDS011;8062;53.882;10.642;2023-06-26T03:45:19;0.30;;;0.30;;
15925;SDS011;8062;53.882;10.642;2023-06-26T03:46:39;0.30;;;0.30;;
15925;SDS011;8062;53.882;10.642;2023-06-26T03:47:59;0.30;;;0.30;;
15925;SDS011;8062;53.882;10.642;2023-06-26T03:49:18;0.30;;;0.30;;
15925;SDS011;8062;53.882;10.642;2023-06-26T03:50:37;0.40;;;0.40;;
15925;SDS011;8062;53.882;10.642;2023-06-26T03:51:57;0.30;;;0.30;;
15925;SDS011;8062;53.882;10.642;2023-06-26T03:53:16;0.50;;;0.50;;
15925;SDS011;8062;53.882;10.642;2023-06-26T03:54:36;0.40;;;0.40;;
15925;SDS011;8062;53.882;10.642;2023-06-26T03:55:55;0.40;;;0.40;;
15925;SDS011;8062;53.882;10.642;2023-06-26T03:57:16;0.30;;;0.30;;
15925;SDS011;8062;53.882;10.642;2023-06-26T03:58:35;0.40;;;0.40;;
15925;SDS011;8062;53.882;10.642;2023-06-26T03:59:54;0.30;;;0.30;;
15925;SDS011;8062;53.882;10.642;2023-06-26T04:01:15;0.30;;;0.30;;
15925;SDS011;8062;53.882;10.642;2023-06-26T04:02:36;0.40;;;0.40;;
15925;SDS011;8062;53.882;10.642;2023-06-26T04:03:55;0.30;;;0.30;;
15925;SDS011;8062;53.882;10.642;2023-06-26T04:05:15;0.30;;;0.30;;
15925;SDS011;8062;53.882;10.642;2023-06-26T04:06:35;0.30;;;0.30;;
15925;SDS011;8062;53.882;10.642;2023-06-26T04:07:55;0.40;;;0.40;;
15925;SDS011;8062;53.882;10.642;2023-06-26T04:09:15;0.37;;;0.37;;
15925;SDS011;8062;53.882;10.642;2023-06-26T04:10:34;0.30;;;0.30;;
15925;SDS011;8062;53.882;10.642;2023-06-26T04:11:55;0.30;;;0.30;;
15925;SDS011;8062;53.882;10.642;2023-06-26T04:13:15;0.30;;;0.30;;
15925;SDS011;8062;53.882;10.642;2023-06-26T04:14:34;0.40;;;0.40;;
15925;SDS011;8062;53.882;10.642;2023-06-26T04:15:54;0.40;;;0.40;;
15925;SDS011;8062;53.882;10.642;2023-06-26T04:17:14;0.27;;;0.27;;
15925;SDS011;8062;53.882;10.642;2023-06-26T04:18:33;0.30;;;0.30;;
15925;SDS011;8062;53.882;10.642;2023-06-26T04:19:53;0.20;;;0.20;;
15925;SDS011;8062;53.882;10.642;2023-06-26T04:21:12;0.30;;;0.30;;
15925;SDS011;8062;53.882;10.642;2023-06-26T04:22:33;0.27;;;0.27;;
15925;SDS011;8062;53.882;10.642;2023-06-26T04:23:52;0.23;;;0.23;;
15925;SDS011;8062;53.882;10.642;2023-06-26T04:25:12;0.20;;;0.20;;
15925;SDS011;8062;53.882;10.642;2023-06-26T04:26:32;0.20;;;0.20;;
15925;SDS011;8062;53.882;10.642;2023-06-26T04:27:51;0.20;;;0.20;;
15925;SDS011;8062;53.882;10.642;2023-06-26T04:29:11;0.20;;;0.20;;
15925;SDS011;8062;53.882;10.642;2023-06-26T04:30:30;0.20;;;0.20;;
15925;SDS011;8062;53.882;10.642;2023-06-26T04:31:50;0.20;;;0.20;;
15925;SDS011;8062;53.882;10.642;2023-06-26T04:33:10;0.20;;;0.20;;
15925;SDS011;8062;53.882;10.642;2023-06-26T04:34:31;0.10;;;0.10;;
15925;SDS011;8062;53.882;10.642;2023-06-26T04:35:54;0.20;;;0.20;;
15925;SDS011;8062;53.882;10.642;2023-06-26T04:37:13;0.20;;;0.20;;
15925;SDS011;8062;53.882;10.642;2023-06-26T04:38:36;0.10;;;0.10;;
15925;SDS011;8062;53.882;10.642;2023-06-26T04:39:56;0.10;;;0.10;;
15925;SDS011;8062;53.882;10.642;2023-06-26T04:41:15;0.10;;;0.10;;
15925;SDS011;8062;53.882;10.642;2023-06-26T04:42:35;0.17;;;0.17;;
15925;SDS011;8062;53.882;10.642;2023-06-26T04:43:54;0.20;;;0.20;;
15925;SDS011;8062;53.882;10.642;2023-06-26T04:45:13;0.10;;;0.10;;
15925;SDS011;8062;53.882;10.642;2023-06-26T04:46:33;0.10;;;0.10;;
15925;SDS011;8062;53.882;10.642;2023-06-26T04:47:53;0.10;;;0.10;;
15925;SDS011;8062;53.882;10.642;2023-06-26T04:49:12;0.20;;;0.20;;
15925;SDS011;8062;53.882;10.642;2023-06-26T04:50:32;0.10;;;0.10;;
15925;SDS011;8062;53.882;10.642;2023-06-26T04:51:52;0.10;;;0.10;;
15925;SDS011;8062;53.882;10.642;2023-06-26T04:53:13;0.17;;;0.17;;
15925;SDS011;8062;53.882;10.642;2023-06-26T04:54:32;0.10;;;0.10;;
15925;SDS011;8062;53.882;10.642;2023-06-26T04:55:52;0.10;;;0.10;;
15925;SDS011;8062;53.882;10.642;2023-06-26T04:57:12;0.10;;;0.10;;
15925;SDS011;8062;53.882;10.642;2023-06-26T04:58:32;0.20;;;0.20;;
15925;SDS011;8062;53.882;10.642;2023-06-26T04:59:51;0.10;;;0.10;;
15925;SDS011;8062;53.882;10.642;2023-06-26T05:01:11;0.10;;;0.10;;
15925;SDS011;8062;53.882;10.642;2023-06-26T05:02:32;0.10;;;0.10;;
15925;SDS011;8062;53.882;10.642;2023-06-26T05:03:52;0.10;;;0.10;;
15925;SDS011;8062;53.882;10.642;2023-06-26T05:05:11;0.10;;;0.10;;
15925;SDS011;8062;53.882;10.642;2023-06-26T05:06:31;0.10;;;0.10;;
15925;SDS011;8062;53.882;10.642;2023-06-26T05:07:52;0.20;;;0.20;;
15925;SDS011;8062;53.882;10.642;2023-06-26T05:09:12;0.10;;;0.10;;
15925;SDS011;8062;53.882;10.642;2023-06-26T05:10:32;0.20;;;0.20;;
15925;SDS011;8062;53.882;10.642;2023-06-26T05:11:52;0.10;;;0.10;;
15925;SDS011;8062;53.882;10.642;2023-06-26T05:13:11;0.15;;;0.15;;
15925;SDS011;8062;53.882;10.642;2023-06-26T05:14:34;0.10;;;0.10;;
15925;SDS011;8062;53.882;10.642;2023-06-26T05:15:53;0.20;;;0.20;;
15925;SDS011;8062;53.882;10.642;2023-06-26T05:17:13;0.13;;;0.13;;
15925;SDS011;8062;53.882;10.642;2023-06-26T05:18:33;0.10;;;0.10;;
15925;SDS011;8062;53.882;10.642;2023-06-26T05:19:52;0.20;;;0.20;;
15925;SDS011;8062;53.882;10.642;2023-06-26T05:21:12;0.20;;;0.20;;
15925;SDS011;8062;53.882;10.642;2023-06-26T05:22:32;0.10;;;0.10;;
15925;SDS011;8062;53.882;10.642;2023-06-26T05:23:55;0.10;;;0.10;;
15925;SDS011;8062;53.882;10.642;2023-06-26T05:25:15;0.10;;;0.10;;
15925;SDS011;8062;53.882;10.642;2023-06-26T05:26:40;0.10;;;0.10;;
15925;SDS011;8062;53.882;10.642;2023-06-26T05:27:59;0.20;;;0.20;;
15925;SDS011;8062;53.882;10.642;2023-06-26T05:29:20;0.10;;;0.10;;
15925;SDS011;8062;53.882;10.642;2023-06-26T05:30:39;0.10;;;0.10;;
15925;SDS011;8062;53.882;10.642;2023-06-26T05:31:59;0.10;;;0.10;;
15925;SDS011;8062;53.882;10.642;2023-06-26T05:33:19;0.10;;;0.10;;
15925;SDS011;8062;53.882;10.642;2023-06-26T05:34:42;0.20;;;0.20;;
15925;SDS011;8062;53.882;10.642;2023-06-26T05:36:01;0.20;;;0.20;;
15925;SDS011;8062;53.882;10.642;2023-06-26T05:37:23;0.20;;;0.20;;
15925;SDS011;8062;53.882;10.642;2023-06-26T05:38:45;0.10;;;0.10;;
15925;SDS011;8062;53.882;10.642;2023-06-26T05:40:05;0.10;;;0.10;;
15925;SDS011;8062;53.882;10.642;2023-06-26T05:41:25;0.10;;;0.10;;
15925;SDS011;8062;53.882;10.642;2023-06-26T05:42:44;0.10;;;0.10;;
15925;SDS011;8062;53.882;10.642;2023-06-26T05:44:04;0.10;;;0.10;;
15925;SDS011;8062;53.882;10.642;2023-06-26T05:45:24;0.10;;;0.10;;
15925;SDS011;8062;53.882;10.642;2023-06-26T05:46:43;0.05;;;0.05;;
15925;SDS011;8062;53.882;10.642;2023-06-26T05:48:05;0.10;;;0.10;;
15925;SDS011;8062;53.882;10.642;2023-06-26T05:49:24;0.10;;;0.10;;
15925;SDS011;8062;53.882;10.642;2023-06-26T05:50:44;0.10;;;0.10;;
15925;SDS011;8062;53.882;10.642;2023-06-26T05:52:04;0.10;;;0.10;;
15925;SDS011;8062;53.882;10.642;2023-06-26T05:53:24;0.00;;;0.00;;
15925;SDS011;8062;53.882;10.642;2023-06-26T05:54:44;0.10;;;0.10;;
15925;SDS011;8062;53.882;10.642;2023-06-26T05:56:03;0.10;;;0.10;;
15925;SDS011;8062;53.882;10.642;2023-06-26T05:57:23;0.10;;;0.10;;
15925;SDS011;8062;53.882;10.642;2023-06-26T05:58:43;0.20;;;0.20;;
15925;SDS011;8062;53.882;10.642;2023-06-26T06:00:03;0.20;;;0.20;;
15925;SDS011;8062;53.882;10.642;2023-06-26T06:01:32;0.30;;;0.30;;
15925;SDS011;8062;53.882;10.642;2023-06-26T06:02:53;0.28;;;0.28;;
15925;SDS011;8062;53.882;10.642;2023-06-26T06:04:13;0.20;;;0.20;;
15925;SDS011;8062;53.882;10.642;2023-06-26T06:05:33;0.20;;;0.20;;
15925;SDS011;8062;53.882;10.642;2023-06-26T06:06:52;0.30;;;0.30;;
15925;SDS011;8062;53.882;10.642;2023-06-26T06:08:12;0.28;;;0.28;;
15925;SDS011;8062;53.882;10.642;2023-06-26T06:09:32;0.20;;;0.20;;
15925;SDS011;8062;53.882;10.642;2023-06-26T06:10:51;0.20;;;0.20;;
15925;SDS011;8062;53.882;10.642;2023-06-26T06:12:11;0.20;;;0.20;;
15925;SDS011;8062;53.882;10.642;2023-06-26T06:13:30;0.20;;;0.20;;
15925;SDS011;8062;53.882;10.642;2023-06-26T06:14:49;0.20;;;0.20;;
15925;SDS011;8062;53.882;10.642;2023-06-26T06:16:09;0.20;;;0.20;;
15925;SDS011;8062;53.882;10.642;2023-06-26T06:17:29;0.20;;;0.20;;
15925;SDS011;8062;53.882;10.642;2023-06-26T06:18:48;0.30;;;0.30;;
15925;SDS011;8062;53.882;10.642;2023-06-26T06:20:08;0.20;;;0.20;;
15925;SDS011;8062;53.882;10.642;2023-06-26T06:21:28;0.20;;;0.20;;
15925;SDS011;8062;53.882;10.642;2023-06-26T06:22:47;0.20;;;0.20;;
15925;SDS011;8062;53.882;10.642;2023-06-26T06:24:07;0.20;;;0.20;;
15925;SDS011;8062;53.882;10.642;2023-06-26T06:25:28;0.20;;;0.20;;
15925;SDS011;8062;53.882;10.642;2023-06-26T06:26:48;0.20;;;0.20;;
15925;SDS011;8062;53.882;10.642;2023-06-26T06:28:07;0.20;;;0.20;;
15925;SDS011;8062;53.882;10.642;2023-06-26T06:29:27;0.20;;;0.20;;
15925;SDS011;8062;53.882;10.642;2023-06-26T06:30:46;0.20;;;0.20;;
15925;SDS011;8062;53.882;10.642;2023-06-26T06:32:06;0.10;;;0.10;;
15925;SDS011;8062;53.882;10.642;2023-06-26T06:33:26;0.20;;;0.20;;
15925;SDS011;8062;53.882;10.642;2023-06-26T06:34:45;0.20;;;0.20;;
15925;SDS011;8062;53.882;10.642;2023-06-26T06:36:05;0.20;;;0.20;;
15925;SDS011;8062;53.882;10.642;2023-06-26T06:37:24;0.20;;;0.20;;
15925;SDS011;8062;53.882;10.642;2023-06-26T06:38:45;0.30;;;0.30;;
15925;SDS011;8062;53.882;10.642;2023-06-26T06:40:11;0.28;;;0.28;;
15925;SDS011;8062;53.882;10.642;2023-06-26T06:41:31;0.20;;;0.20;;
15925;SDS011;8062;53.882;10.642;2023-06-26T06:42:50;0.20;;;0.20;;
15925;SDS011;8062;53.882;10.642;2023-06-26T06:44:10;0.20;;;0.20;;
15925;SDS011;8062;53.882;10.642;2023-06-26T06:45:30;0.20;;;0.20;;
15925;SDS011;8062;53.882;10.642;2023-06-26T06:46:50;0.20;;;0.20;;
15925;SDS011;8062;53.882;10.642;2023-06-26T06:48:10;0.20;;;0.20;;
15925;SDS011;8062;53.882;10.642;2023-06-26T06:49:29;0.20;;;0.20;;
15925;SDS011;8062;53.882;10.642;2023-06-26T06:50:49;0.20;;;0.20;;
15925;SDS011;8062;53.882;10.642;2023-06-26T06:52:09;0.20;;;0.20;;
15925;SDS011;8062;53.882;10.642;2023-06-26T06:53:28;0.20;;;0.20;;
15925;SDS011;8062;53.882;10.642;2023-06-26T06:54:56;0.10;;;0.10;;
15925;SDS011;8062;53.882;10.642;2023-06-26T06:56:17;0.10;;;0.10;;
15925;SDS011;8062;53.882;10.642;2023-06-26T06:57:37;0.10;;;0.10;;
15925;SDS011;8062;53.882;10.642;2023-06-26T06:58:58;0.10;;;0.10;;
15925;SDS011;8062;53.882;10.642;2023-06-26T07:00:18;0.10;;;0.10;;
15925;SDS011;8062;53.882;10.642;2023-06-26T07:01:38;0.10;;;0.10;;
15925;SDS011;8062;53.882;10.642;2023-06-26T07:02:58;0.20;;;0.20;;
15925;SDS011;8062;53.882;10.642;2023-06-26T07:04:19;0.20;;;0.20;;
15925;SDS011;8062;53.882;10.642;2023-06-26T07:05:38;0.20;;;0.20;;
15925;SDS011;8062;53.882;10.642;2023-06-26T07:07:00;0.10;;;0.10;;
15925;SDS011;8062;53.882;10.642;2023-06-26T07:08:19;0.10;;;0.10;;
15925;SDS011;8062;53.882;10.642;2023-06-26T07:09:38;0.10;;;0.10;;
15925;SDS011;8062;53.882;10.642;2023-06-26T07:10:58;0.10;;;0.10;;
15925;SDS011;8062;53.882;10.642;2023-06-26T07:12:17;0.10;;;0.10;;
15925;SDS011;8062;53.882;10.642;2023-06-26T07:13:37;0.03;;;0.03;;
15925;SDS011;8062;53.882;10.642;2023-06-26T07:14:57;0.00;;;0.00;;
15925;SDS011;8062;53.882;10.642;2023-06-26T07:16:16;0.10;;;0.10;;
15925;SDS011;8062;53.882;10.642;2023-06-26T07:17:37;0.00;;;0.00;;
15925;SDS011;8062;53.882;10.642;2023-06-26T07:18:59;0.00;;;0.00;;
15925;SDS011;8062;53.882;10.642;2023-06-26T07:20:19;0.00;;;0.00;;
15925;SDS011;8062;53.882;10.642;2023-06-26T07:21:38;0.10;;;0.10;;
15925;SDS011;8062;53.882;10.642;2023-06-26T07:22:58;0.00;;;0.00;;
15925;SDS011;8062;53.882;10.642;2023-06-26T07:24:17;0.00;;;0.00;;
15925;SDS011;8062;53.882;10.642;2023-06-26T07:25:37;0.00;;;0.00;;
15925;SDS011;8062;53.882;10.642;2023-06-26T07:26:56;0.00;;;0.00;;
15925;SDS011;8062;53.882;10.642;2023-06-26T07:28:16;0.00;;;0.00;;
15925;SDS011;8062;53.882;10.642;2023-06-26T07:29:35;0.00;;;0.00;;
15925;SDS011;8062;53.882;10.642;2023-06-26T07:30:55;0.00;;;0.00;;
15925;SDS011;8062;53.882;10.642;2023-06-26T07:32:14;0.00;;;0.00;;
15925;SDS011;8062;53.882;10.642;2023-06-26T07:33:34;0.00;;;0.00;;
15925;SDS011;8062;53.882;10.642;2023-06-26T07:34:53;0.00;;;0.00;;
15925;SDS011;8062;53.882;10.642;2023-06-26T07:36:13;0.00;;;0.00;;
15925;SDS011;8062;53.882;10.642;2023-06-26T07:37:32;0.00;;;0.00;;
15925;SDS011;8062;53.882;10.642;2023-06-26T07:38:52;0.00;;;0.00;;
15925;SDS011;8062;53.882;10.642;2023-06-26T07:40:12;0.00;;;0.00;;
15925;SDS011;8062;53.882;10.642;2023-06-26T07:41:32;0.00;;;0.00;;
15925;SDS011;8062;53.882;10.642;2023-06-26T07:42:51;0.00;;;0.00;;
15925;SDS011;8062;53.882;10.642;2023-06-26T07:44:12;0.00;;;0.00;;
15925;SDS011;8062;53.882;10.642;2023-06-26T07:45:33;0.00;;;0.00;;
15925;SDS011;8062;53.882;10.642;2023-06-26T07:46:52;0.00;;;0.00;;
15925;SDS011;8062;53.882;10.642;2023-06-26T07:48:12;0.00;;;0.00;;
15925;SDS011;8062;53.882;10.642;2023-06-26T07:49:31;0.00;;;0.00;;
15925;SDS011;8062;53.882;10.642;2023-06-26T07:50:50;0.00;;;0.00;;
15925;SDS011;8062;53.882;10.642;2023-06-26T07:52:10;0.00;;;0.00;;
15925;SDS011;8062;53.882;10.642;2023-06-26T07:53:30;0.00;;;0.00;;
15925;SDS011;8062;53.882;10.642;2023-06-26T07:54:50;0.00;;;0.00;;
15925;SDS011;8062;53.882;10.642;2023-06-26T07:56:09;0.00;;;0.00;;
15925;SDS011;8062;53.882;10.642;2023-06-26T07:57:29;0.00;;;0.00;;
15925;SDS011;8062;53.882;10.642;2023-06-26T07:58:49;0.00;;;0.00;;
15925;SDS011;8062;53.882;10.642;2023-06-26T08:00:09;0.00;;;0.00;;
15925;SDS011;8062;53.882;10.642;2023-06-26T08:01:35;0.00;;;0.00;;
15925;SDS011;8062;53.882;10.642;2023-06-26T08:02:55;0.00;;;0.00;;
15925;SDS011;8062;53.882;10.642;2023-06-26T08:04:14;0.00;;;0.00;;
15925;SDS011;8062;53.882;10.642;2023-06-26T08:05:34;0.00;;;0.00;;
15925;SDS011;8062;53.882;10.642;2023-06-26T08:06:54;0.00;;;0.00;;
15925;SDS011;8062;53.882;10.642;2023-06-26T08:08:14;0.00;;;0.00;;
15925;SDS011;8062;53.882;10.642;2023-06-26T08:09:34;0.00;;;0.00;;